This is the latest recevied weather packets stored in our database for station/object KJ5IMV-9. If no packets are shown the sender has not sent any weather packets the latest 10 day(s).
| Time | Temp. | Humidity | Pressure | Rain* | Wind** | Luminosity | Snow |
|---|---|---|---|---|---|---|---|
| 1787706972 | 32.78° C | 70% | 1008.8 hPa | - | - | - | - |
| 1787706369 | 33.33° C | 69% | 1008.6 hPa | - | - | - | - |
| 1787704863 | 33.33° C | 70% | 1008.5 hPa | - | - | - | - |
| 1787704560 | 33.33° C | 70% | 1008.4 hPa | - | - | - | - |
| 1787699437 | 36.67° C | 59% | 1008.4 hPa | - | - | - | - |
| 1787689492 | 36.11° C | 59% | 1009.7 hPa | - | - | - | - |
| 1787678037 | 33.89° C | 72% | 1012.2 hPa | - | - | - | - |
| 1787675926 | 32.78° C | 75% | 1012.8 hPa | - | - | - | - |
| 1787674721 | 32.78° C | 76% | 1012.8 hPa | - | - | - | - |
| 1787674116 | 32.22° C | 79% | 1012.7 hPa | - | - | - | - |
| 1787672912 | 31.67° C | 82% | 1012.6 hPa | - | - | - | - |
| 1787671104 | 30° C | 87% | 1012.1 hPa | - | - | - | - |
| 1787667488 | 29.44° C | 91% | 1012 hPa | - | - | - | - |
| 1787665376 | 28.33° C | 95% | 1012 hPa | - | - | - | - |
| 1787596014 | 35.56° C | 63% | 1010.6 hPa | - | - | - | - |
| 1787593284 | 35° C | 71% | 1011.2 hPa | - | - | - | - |
| 1787592978 | 35° C | 69% | 1011.3 hPa | - | - | - | - |
| 1787592675 | 35° C | 71% | 1011.3 hPa | - | - | - | - |
| 1787592373 | 35° C | 70% | 1011.3 hPa | - | - | - | - |
| 1787592069 | 34.44° C | 69% | 1011.3 hPa | - | - | - | - |
| 1787591764 | 34.44° C | 71% | 1011.4 hPa | - | - | - | - |
| 1787591158 | 34.44° C | 71% | 1011.5 hPa | - | - | - | - |
| 1787590848 | 34.44° C | 70% | 1011.5 hPa | - | - | - | - |
| 1787590545 | 34.44° C | 72% | 1011.4 hPa | - | - | - | - |
| 1787589331 | 33.89° C | 74% | 1011.3 hPa | - | - | - | - |
* Rain since midnight (hover to see other rain measurements)
** Current wind speed in m/s (hover to see current wind gust speed)